sensor_id;sensor_type;location;lat;lon;timestamp;P1;durP1;ratioP1;P2;durP2;ratioP2
67768;SDS011;54569;52.018;5.584;2023-08-20T00:01:28;6.00;;;4.95;;
67768;SDS011;54569;52.018;5.584;2023-08-20T00:03:54;6.93;;;4.72;;
67768;SDS011;54569;52.018;5.584;2023-08-20T00:06:20;7.03;;;5.20;;
67768;SDS011;54569;52.018;5.584;2023-08-20T00:08:47;8.43;;;5.60;;
67768;SDS011;54569;52.018;5.584;2023-08-20T00:11:14;7.05;;;5.05;;
67768;SDS011;54569;52.018;5.584;2023-08-20T00:13:41;8.55;;;5.28;;
67768;SDS011;54569;52.018;5.584;2023-08-20T00:16:07;10.77;;;5.15;;
67768;SDS011;54569;52.018;5.584;2023-08-20T00:18:34;9.15;;;5.35;;
67768;SDS011;54569;52.018;5.584;2023-08-20T00:21:00;10.32;;;5.43;;
67768;SDS011;54569;52.018;5.584;2023-08-20T00:23:26;8.73;;;6.38;;
67768;SDS011;54569;52.018;5.584;2023-08-20T00:25:52;7.72;;;5.78;;
67768;SDS011;54569;52.018;5.584;2023-08-20T00:28:19;10.15;;;5.38;;
67768;SDS011;54569;52.018;5.584;2023-08-20T00:30:45;9.93;;;6.50;;
67768;SDS011;54569;52.018;5.584;2023-08-20T00:33:11;9.95;;;5.82;;
67768;SDS011;54569;52.018;5.584;2023-08-20T00:35:37;10.20;;;6.47;;
67768;SDS011;54569;52.018;5.584;2023-08-20T00:38:03;7.57;;;6.65;;
67768;SDS011;54569;52.018;5.584;2023-08-20T00:40:30;9.63;;;6.50;;
67768;SDS011;54569;52.018;5.584;2023-08-20T00:42:56;7.93;;;6.53;;
67768;SDS011;54569;52.018;5.584;2023-08-20T00:45:22;8.98;;;7.40;;
67768;SDS011;54569;52.018;5.584;2023-08-20T00:47:48;8.13;;;7.32;;
67768;SDS011;54569;52.018;5.584;2023-08-20T00:50:15;8.80;;;6.70;;
67768;SDS011;54569;52.018;5.584;2023-08-20T00:52:41;8.68;;;6.75;;
67768;SDS011;54569;52.018;5.584;2023-08-20T00:55:08;10.02;;;6.60;;
67768;SDS011;54569;52.018;5.584;2023-08-20T00:57:38;7.82;;;6.53;;
67768;SDS011;54569;52.018;5.584;2023-08-20T01:00:05;9.52;;;6.82;;
67768;SDS011;54569;52.018;5.584;2023-08-20T01:02:34;9.95;;;6.75;;
67768;SDS011;54569;52.018;5.584;2023-08-20T01:05:01;12.13;;;7.03;;
67768;SDS011;54569;52.018;5.584;2023-08-20T01:07:33;11.20;;;7.22;;
67768;SDS011;54569;52.018;5.584;2023-08-20T01:10:18;8.63;;;6.68;;
67768;SDS011;54569;52.018;5.584;2023-08-20T01:12:45;11.15;;;7.40;;
67768;SDS011;54569;52.018;5.584;2023-08-20T01:15:12;8.73;;;6.97;;
67768;SDS011;54569;52.018;5.584;2023-08-20T01:17:42;10.63;;;6.80;;
67768;SDS011;54569;52.018;5.584;2023-08-20T01:20:09;8.50;;;6.40;;
67768;SDS011;54569;52.018;5.584;2023-08-20T01:28:37;7.53;;;5.80;;
67768;SDS011;54569;52.018;5.584;2023-08-20T01:31:04;9.15;;;5.97;;
67768;SDS011;54569;52.018;5.584;2023-08-20T01:33:31;8.85;;;5.78;;
67768;SDS011;54569;52.018;5.584;2023-08-20T01:35:57;7.00;;;5.15;;
67768;SDS011;54569;52.018;5.584;2023-08-20T01:38:23;7.63;;;5.40;;
67768;SDS011;54569;52.018;5.584;2023-08-20T01:40:48;8.20;;;5.28;;
67768;SDS011;54569;52.018;5.584;2023-08-20T01:43:14;8.57;;;5.15;;
67768;SDS011;54569;52.018;5.584;2023-08-20T01:45:40;7.32;;;5.30;;
67768;SDS011;54569;52.018;5.584;2023-08-20T01:48:06;9.25;;;5.50;;
67768;SDS011;54569;52.018;5.584;2023-08-20T01:50:33;8.93;;;5.50;;
67768;SDS011;54569;52.018;5.584;2023-08-20T01:53:00;8.77;;;4.80;;
67768;SDS011;54569;52.018;5.584;2023-08-20T01:55:28;7.55;;;4.65;;
67768;SDS011;54569;52.018;5.584;2023-08-20T01:57:54;8.80;;;5.43;;
67768;SDS011;54569;52.018;5.584;2023-08-20T02:00:20;7.65;;;5.45;;
67768;SDS011;54569;52.018;5.584;2023-08-20T02:02:45;7.80;;;5.20;;
67768;SDS011;54569;52.018;5.584;2023-08-20T02:05:11;8.80;;;5.50;;
67768;SDS011;54569;52.018;5.584;2023-08-20T02:07:37;7.43;;;5.32;;
67768;SDS011;54569;52.018;5.584;2023-08-20T02:10:03;6.53;;;5.80;;
67768;SDS011;54569;52.018;5.584;2023-08-20T02:12:29;7.82;;;5.05;;
67768;SDS011;54569;52.018;5.584;2023-08-20T02:14:56;7.50;;;5.72;;
67768;SDS011;54569;52.018;5.584;2023-08-20T02:17:22;6.90;;;5.38;;
67768;SDS011;54569;52.018;5.584;2023-08-20T02:19:48;7.78;;;6.07;;
67768;SDS011;54569;52.018;5.584;2023-08-20T02:22:14;9.80;;;7.03;;
67768;SDS011;54569;52.018;5.584;2023-08-20T02:24:40;9.95;;;5.90;;
67768;SDS011;54569;52.018;5.584;2023-08-20T02:27:07;8.93;;;6.57;;
67768;SDS011;54569;52.018;5.584;2023-08-20T02:29:32;8.98;;;6.85;;
67768;SDS011;54569;52.018;5.584;2023-08-20T02:31:58;8.80;;;6.78;;
67768;SDS011;54569;52.018;5.584;2023-08-20T02:34:24;8.23;;;6.93;;
67768;SDS011;54569;52.018;5.584;2023-08-20T02:36:49;10.13;;;6.78;;
67768;SDS011;54569;52.018;5.584;2023-08-20T02:39:15;8.50;;;6.43;;
67768;SDS011;54569;52.018;5.584;2023-08-20T02:41:42;10.93;;;6.43;;
67768;SDS011;54569;52.018;5.584;2023-08-20T02:44:08;9.27;;;7.10;;
67768;SDS011;54569;52.018;5.584;2023-08-20T02:46:34;8.45;;;6.82;;
67768;SDS011;54569;52.018;5.584;2023-08-20T02:48:59;10.02;;;7.72;;
67768;SDS011;54569;52.018;5.584;2023-08-20T02:51:26;11.30;;;7.88;;
67768;SDS011;54569;52.018;5.584;2023-08-20T02:53:52;13.10;;;8.27;;
67768;SDS011;54569;52.018;5.584;2023-08-20T02:56:18;9.73;;;7.47;;
67768;SDS011;54569;52.018;5.584;2023-08-20T02:58:44;10.73;;;8.15;;
67768;SDS011;54569;52.018;5.584;2023-08-20T03:01:20;11.52;;;7.80;;
67768;SDS011;54569;52.018;5.584;2023-08-20T03:03:47;10.70;;;8.13;;
67768;SDS011;54569;52.018;5.584;2023-08-20T03:06:13;10.65;;;7.35;;
67768;SDS011;54569;52.018;5.584;2023-08-20T03:08:39;12.10;;;8.43;;
67768;SDS011;54569;52.018;5.584;2023-08-20T03:11:05;11.32;;;8.07;;
67768;SDS011;54569;52.018;5.584;2023-08-20T03:13:30;9.50;;;8.00;;
67768;SDS011;54569;52.018;5.584;2023-08-20T03:15:56;8.93;;;8.02;;
67768;SDS011;54569;52.018;5.584;2023-08-20T03:18:22;10.90;;;8.50;;
67768;SDS011;54569;52.018;5.584;2023-08-20T03:20:48;11.95;;;8.40;;
67768;SDS011;54569;52.018;5.584;2023-08-20T03:23:13;12.98;;;8.75;;
67768;SDS011;54569;52.018;5.584;2023-08-20T03:25:39;11.52;;;8.88;;
67768;SDS011;54569;52.018;5.584;2023-08-20T03:28:05;10.15;;;7.30;;
67768;SDS011;54569;52.018;5.584;2023-08-20T03:30:31;10.48;;;7.70;;
67768;SDS011;54569;52.018;5.584;2023-08-20T03:32:58;8.73;;;7.88;;
67768;SDS011;54569;52.018;5.584;2023-08-20T03:35:24;11.85;;;9.15;;
67768;SDS011;54569;52.018;5.584;2023-08-20T03:37:50;10.48;;;9.00;;
67768;SDS011;54569;52.018;5.584;2023-08-20T03:40:16;9.10;;;8.30;;
67768;SDS011;54569;52.018;5.584;2023-08-20T03:42:43;12.88;;;9.15;;
67768;SDS011;54569;52.018;5.584;2023-08-20T03:45:09;12.98;;;9.23;;
67768;SDS011;54569;52.018;5.584;2023-08-20T03:47:34;13.32;;;9.18;;
67768;SDS011;54569;52.018;5.584;2023-08-20T03:50:02;12.43;;;9.23;;
67768;SDS011;54569;52.018;5.584;2023-08-20T03:52:28;12.93;;;9.77;;
67768;SDS011;54569;52.018;5.584;2023-08-20T03:54:54;10.60;;;8.80;;
67768;SDS011;54569;52.018;5.584;2023-08-20T03:57:20;12.15;;;9.68;;
67768;SDS011;54569;52.018;5.584;2023-08-20T03:59:46;12.95;;;9.13;;
67768;SDS011;54569;52.018;5.584;2023-08-20T04:02:13;11.05;;;8.25;;
67768;SDS011;54569;52.018;5.584;2023-08-20T04:04:39;12.38;;;8.82;;
67768;SDS011;54569;52.018;5.584;2023-08-20T04:07:05;13.95;;;10.18;;
67768;SDS011;54569;52.018;5.584;2023-08-20T04:09:32;12.05;;;9.38;;
67768;SDS011;54569;52.018;5.584;2023-08-20T04:11:58;12.55;;;9.93;;
67768;SDS011;54569;52.018;5.584;2023-08-20T04:14:24;11.05;;;9.32;;
67768;SDS011;54569;52.018;5.584;2023-08-20T04:16:51;11.23;;;8.43;;
67768;SDS011;54569;52.018;5.584;2023-08-20T04:19:17;11.13;;;8.45;;
67768;SDS011;54569;52.018;5.584;2023-08-20T04:21:44;8.40;;;7.30;;
67768;SDS011;54569;52.018;5.584;2023-08-20T04:24:10;12.32;;;7.97;;
67768;SDS011;54569;52.018;5.584;2023-08-20T04:26:36;15.98;;;8.98;;
67768;SDS011;54569;52.018;5.584;2023-08-20T04:29:02;10.48;;;7.47;;
67768;SDS011;54569;52.018;5.584;2023-08-20T04:31:29;9.73;;;8.35;;
67768;SDS011;54569;52.018;5.584;2023-08-20T04:34:00;7.97;;;7.18;;
67768;SDS011;54569;52.018;5.584;2023-08-20T04:36:45;10.73;;;7.60;;
67768;SDS011;54569;52.018;5.584;2023-08-20T04:39:11;10.73;;;7.95;;
67768;SDS011;54569;52.018;5.584;2023-08-20T04:41:41;11.55;;;8.63;;
67768;SDS011;54569;52.018;5.584;2023-08-20T04:44:12;11.63;;;8.65;;
67768;SDS011;54569;52.018;5.584;2023-08-20T04:46:37;10.25;;;7.55;;
67768;SDS011;54569;52.018;5.584;2023-08-20T04:49:04;9.85;;;8.85;;
67768;SDS011;54569;52.018;5.584;2023-08-20T04:51:29;9.70;;;8.48;;
67768;SDS011;54569;52.018;5.584;2023-08-20T04:53:55;9.55;;;8.48;;
67768;SDS011;54569;52.018;5.584;2023-08-20T04:56:21;11.00;;;8.73;;
67768;SDS011;54569;52.018;5.584;2023-08-20T04:58:46;13.75;;;8.65;;
67768;SDS011;54569;52.018;5.584;2023-08-20T05:01:21;9.48;;;8.27;;
67768;SDS011;54569;52.018;5.584;2023-08-20T05:03:47;15.88;;;9.45;;
67768;SDS011;54569;52.018;5.584;2023-08-20T05:06:13;9.70;;;8.35;;
67768;SDS011;54569;52.018;5.584;2023-08-20T05:08:40;9.90;;;8.90;;
67768;SDS011;54569;52.018;5.584;2023-08-20T05:11:07;11.80;;;9.35;;
67768;SDS011;54569;52.018;5.584;2023-08-20T05:13:33;11.57;;;9.40;;
67768;SDS011;54569;52.018;5.584;2023-08-20T05:15:59;12.55;;;9.07;;
67768;SDS011;54569;52.018;5.584;2023-08-20T05:18:25;13.55;;;9.13;;
67768;SDS011;54569;52.018;5.584;2023-08-20T05:20:53;9.85;;;8.93;;
67768;SDS011;54569;52.018;5.584;2023-08-20T05:23:19;14.40;;;9.23;;
67768;SDS011;54569;52.018;5.584;2023-08-20T05:25:44;11.52;;;8.15;;
67768;SDS011;54569;52.018;5.584;2023-08-20T05:28:10;9.38;;;8.35;;
67768;SDS011;54569;52.018;5.584;2023-08-20T05:30:36;13.52;;;9.30;;
67768;SDS011;54569;52.018;5.584;2023-08-20T05:33:02;8.52;;;7.72;;
67768;SDS011;54569;52.018;5.584;2023-08-20T05:35:33;9.18;;;7.47;;
67768;SDS011;54569;52.018;5.584;2023-08-20T05:38:01;10.38;;;8.43;;
67768;SDS011;54569;52.018;5.584;2023-08-20T05:40:27;12.68;;;8.63;;
67768;SDS011;54569;52.018;5.584;2023-08-20T05:42:53;10.95;;;9.10;;
67768;SDS011;54569;52.018;5.584;2023-08-20T05:45:18;10.95;;;9.35;;
67768;SDS011;54569;52.018;5.584;2023-08-20T05:47:44;9.55;;;8.38;;
67768;SDS011;54569;52.018;5.584;2023-08-20T05:50:10;10.35;;;8.35;;
67768;SDS011;54569;52.018;5.584;2023-08-20T05:52:36;13.13;;;8.98;;
67768;SDS011;54569;52.018;5.584;2023-08-20T05:55:02;9.85;;;8.20;;
67768;SDS011;54569;52.018;5.584;2023-08-20T05:57:28;11.88;;;8.35;;
67768;SDS011;54569;52.018;5.584;2023-08-20T05:59:54;9.27;;;7.75;;
67768;SDS011;54569;52.018;5.584;2023-08-20T06:02:19;12.95;;;7.68;;
67768;SDS011;54569;52.018;5.584;2023-08-20T06:04:45;11.02;;;6.88;;
67768;SDS011;54569;52.018;5.584;2023-08-20T06:07:11;11.77;;;7.10;;
67768;SDS011;54569;52.018;5.584;2023-08-20T06:09:36;11.07;;;6.53;;
67768;SDS011;54569;52.018;5.584;2023-08-20T06:12:02;11.55;;;6.47;;
67768;SDS011;54569;52.018;5.584;2023-08-20T06:14:28;11.07;;;5.82;;
67768;SDS011;54569;52.018;5.584;2023-08-20T06:16:54;10.02;;;5.88;;
67768;SDS011;54569;52.018;5.584;2023-08-20T06:19:19;12.07;;;5.15;;
67768;SDS011;54569;52.018;5.584;2023-08-20T06:21:45;9.27;;;5.22;;
67768;SDS011;54569;52.018;5.584;2023-08-20T06:24:11;10.90;;;5.22;;
67768;SDS011;54569;52.018;5.584;2023-08-20T06:26:36;8.65;;;5.10;;
67768;SDS011;54569;52.018;5.584;2023-08-20T06:29:02;10.68;;;4.63;;
67768;SDS011;54569;52.018;5.584;2023-08-20T06:31:28;8.85;;;4.88;;
67768;SDS011;54569;52.018;5.584;2023-08-20T06:33:54;6.28;;;4.32;;
67768;SDS011;54569;52.018;5.584;2023-08-20T06:36:19;9.85;;;4.97;;
67768;SDS011;54569;52.018;5.584;2023-08-20T06:38:45;7.53;;;4.47;;
67768;SDS011;54569;52.018;5.584;2023-08-20T06:41:11;8.30;;;4.07;;
67768;SDS011;54569;52.018;5.584;2023-08-20T06:43:37;8.68;;;4.97;;
67768;SDS011;54569;52.018;5.584;2023-08-20T06:46:03;8.13;;;3.80;;
67768;SDS011;54569;52.018;5.584;2023-08-20T06:48:28;10.68;;;3.65;;
67768;SDS011;54569;52.018;5.584;2023-08-20T06:50:54;9.45;;;3.17;;
67768;SDS011;54569;52.018;5.584;2023-08-20T06:53:20;9.50;;;3.00;;
67768;SDS011;54569;52.018;5.584;2023-08-20T06:55:45;6.30;;;2.88;;
67768;SDS011;54569;52.018;5.584;2023-08-20T06:58:11;11.25;;;3.40;;
67768;SDS011;54569;52.018;5.584;2023-08-20T07:00:37;10.07;;;3.15;;
67768;SDS011;54569;52.018;5.584;2023-08-20T07:03:02;10.98;;;3.45;;
67768;SDS011;54569;52.018;5.584;2023-08-20T07:05:28;8.25;;;3.22;;
67768;SDS011;54569;52.018;5.584;2023-08-20T07:07:54;8.60;;;2.92;;
67768;SDS011;54569;52.018;5.584;2023-08-20T07:10:20;9.48;;;3.35;;
67768;SDS011;54569;52.018;5.584;2023-08-20T07:12:45;10.07;;;3.10;;
67768;SDS011;54569;52.018;5.584;2023-08-20T07:15:11;9.45;;;2.88;;
67768;SDS011;54569;52.018;5.584;2023-08-20T07:17:37;10.75;;;3.15;;
67768;SDS011;54569;52.018;5.584;2023-08-20T07:20:03;6.25;;;2.45;;
67768;SDS011;54569;52.018;5.584;2023-08-20T07:22:30;7.47;;;2.45;;
67768;SDS011;54569;52.018;5.584;2023-08-20T07:24:55;8.18;;;2.53;;
67768;SDS011;54569;52.018;5.584;2023-08-20T07:27:21;9.30;;;3.22;;
67768;SDS011;54569;52.018;5.584;2023-08-20T07:29:47;9.23;;;2.80;;
67768;SDS011;54569;52.018;5.584;2023-08-20T07:32:12;6.03;;;2.42;;
67768;SDS011;54569;52.018;5.584;2023-08-20T07:34:38;5.63;;;2.55;;
67768;SDS011;54569;52.018;5.584;2023-08-20T07:37:04;5.75;;;1.90;;
67768;SDS011;54569;52.018;5.584;2023-08-20T07:39:30;6.05;;;2.13;;
67768;SDS011;54569;52.018;5.584;2023-08-20T07:41:55;5.03;;;1.95;;
67768;SDS011;54569;52.018;5.584;2023-08-20T07:44:21;6.57;;;1.50;;
67768;SDS011;54569;52.018;5.584;2023-08-20T07:46:47;5.53;;;1.65;;
67768;SDS011;54569;52.018;5.584;2023-08-20T07:49:12;9.90;;;2.20;;
67768;SDS011;54569;52.018;5.584;2023-08-20T07:51:38;6.07;;;1.63;;
67768;SDS011;54569;52.018;5.584;2023-08-20T07:54:04;5.38;;;1.65;;
67768;SDS011;54569;52.018;5.584;2023-08-20T07:56:30;3.33;;;1.63;;
67768;SDS011;54569;52.018;5.584;2023-08-20T07:58:55;6.85;;;1.67;;
67768;SDS011;54569;52.018;5.584;2023-08-20T08:01:21;7.25;;;1.90;;
67768;SDS011;54569;52.018;5.584;2023-08-20T08:03:47;6.63;;;1.70;;
67768;SDS011;54569;52.018;5.584;2023-08-20T08:06:13;5.25;;;1.20;;
67768;SDS011;54569;52.018;5.584;2023-08-20T08:08:41;4.75;;;1.65;;
67768;SDS011;54569;52.018;5.584;2023-08-20T08:11:08;3.50;;;1.48;;
67768;SDS011;54569;52.018;5.584;2023-08-20T08:13:34;6.07;;;1.65;;
67768;SDS011;54569;52.018;5.584;2023-08-20T08:15:59;4.63;;;1.50;;
67768;SDS011;54569;52.018;5.584;2023-08-20T08:18:25;4.18;;;1.42;;
67768;SDS011;54569;52.018;5.584;2023-08-20T08:20:50;5.40;;;1.80;;
67768;SDS011;54569;52.018;5.584;2023-08-20T08:23:16;4.53;;;1.50;;
67768;SDS011;54569;52.018;5.584;2023-08-20T08:25:42;2.83;;;1.20;;
67768;SDS011;54569;52.018;5.584;2023-08-20T08:28:08;3.67;;;1.58;;
67768;SDS011;54569;52.018;5.584;2023-08-20T08:30:33;4.35;;;1.50;;
67768;SDS011;54569;52.018;5.584;2023-08-20T08:32:59;5.18;;;1.50;;
67768;SDS011;54569;52.018;5.584;2023-08-20T08:35:25;3.58;;;1.40;;
67768;SDS011;54569;52.018;5.584;2023-08-20T08:37:50;5.15;;;1.25;;
67768;SDS011;54569;52.018;5.584;2023-08-20T08:40:16;4.75;;;1.23;;
67768;SDS011;54569;52.018;5.584;2023-08-20T08:42:43;4.88;;;1.70;;
67768;SDS011;54569;52.018;5.584;2023-08-20T08:45:13;4.97;;;1.50;;
67768;SDS011;54569;52.018;5.584;2023-08-20T08:47:39;4.93;;;1.42;;
67768;SDS011;54569;52.018;5.584;2023-08-20T08:50:05;3.88;;;1.20;;
67768;SDS011;54569;52.018;5.584;2023-08-20T08:52:32;7.13;;;1.77;;
67768;SDS011;54569;52.018;5.584;2023-08-20T08:54:58;6.40;;;2.17;;
67768;SDS011;54569;52.018;5.584;2023-08-20T08:57:24;3.70;;;1.17;;
67768;SDS011;54569;52.018;5.584;2023-08-20T08:59:50;4.30;;;1.30;;
67768;SDS011;54569;52.018;5.584;2023-08-20T09:02:16;7.25;;;1.10;;
67768;SDS011;54569;52.018;5.584;2023-08-20T09:04:42;4.97;;;1.17;;
67768;SDS011;54569;52.018;5.584;2023-08-20T09:07:12;5.38;;;1.40;;
67768;SDS011;54569;52.018;5.584;2023-08-20T09:09:42;3.35;;;1.08;;
67768;SDS011;54569;52.018;5.584;2023-08-20T09:12:12;4.43;;;0.93;;
67768;SDS011;54569;52.018;5.584;2023-08-20T09:14:39;2.55;;;1.05;;
67768;SDS011;54569;52.018;5.584;2023-08-20T09:17:05;3.45;;;0.95;;
67768;SDS011;54569;52.018;5.584;2023-08-20T09:19:35;3.35;;;1.25;;
67768;SDS011;54569;52.018;5.584;2023-08-20T09:22:02;2.92;;;0.90;;
67768;SDS011;54569;52.018;5.584;2023-08-20T09:24:32;3.03;;;1.20;;
67768;SDS011;54569;52.018;5.584;2023-08-20T09:27:05;1.80;;;0.80;;
67768;SDS011;54569;52.018;5.584;2023-08-20T09:29:31;2.45;;;0.80;;
67768;SDS011;54569;52.018;5.584;2023-08-20T09:32:02;2.35;;;0.88;;
67768;SDS011;54569;52.018;5.584;2023-08-20T09:34:35;3.05;;;0.80;;
67768;SDS011;54569;52.018;5.584;2023-08-20T09:37:03;3.15;;;0.90;;
67768;SDS011;54569;52.018;5.584;2023-08-20T09:39:29;1.58;;;0.80;;
67768;SDS011;54569;52.018;5.584;2023-08-20T09:41:54;3.50;;;0.90;;
67768;SDS011;54569;52.018;5.584;2023-08-20T09:44:21;2.72;;;0.80;;
67768;SDS011;54569;52.018;5.584;2023-08-20T09:46:48;1.92;;;0.75;;
67768;SDS011;54569;52.018;5.584;2023-08-20T09:49:14;1.95;;;1.20;;
67768;SDS011;54569;52.018;5.584;2023-08-20T09:51:44;2.25;;;0.90;;
67768;SDS011;54569;52.018;5.584;2023-08-20T09:54:21;4.28;;;1.00;;
67768;SDS011;54569;52.018;5.584;2023-08-20T09:57:00;3.17;;;0.90;;
67768;SDS011;54569;52.018;5.584;2023-08-20T09:59:29;2.75;;;0.77;;
67768;SDS011;54569;52.018;5.584;2023-08-20T10:01:55;2.17;;;0.95;;
67768;SDS011;54569;52.018;5.584;2023-08-20T10:04:22;2.92;;;0.95;;
67768;SDS011;54569;52.018;5.584;2023-08-20T10:06:48;2.92;;;0.95;;
67768;SDS011;54569;52.018;5.584;2023-08-20T10:09:16;2.70;;;1.05;;
67768;SDS011;54569;52.018;5.584;2023-08-20T10:11:43;2.88;;;1.10;;
67768;SDS011;54569;52.018;5.584;2023-08-20T10:14:08;3.63;;;0.93;;
67768;SDS011;54569;52.018;5.584;2023-08-20T10:16:34;3.05;;;1.00;;
67768;SDS011;54569;52.018;5.584;2023-08-20T10:19:03;2.17;;;0.80;;
67768;SDS011;54569;52.018;5.584;2023-08-20T10:21:31;3.90;;;1.08;;
67768;SDS011;54569;52.018;5.584;2023-08-20T10:24:02;3.85;;;0.98;;
67768;SDS011;54569;52.018;5.584;2023-08-20T10:26:29;3.28;;;1.05;;
67768;SDS011;54569;52.018;5.584;2023-08-20T10:31:57;3.63;;;0.73;;
67768;SDS011;54569;52.018;5.584;2023-08-20T10:34:33;2.78;;;1.00;;
67768;SDS011;54569;52.018;5.584;2023-08-20T10:37:47;4.35;;;1.00;;
67768;SDS011;54569;52.018;5.584;2023-08-20T10:39:55;4.05;;;1.05;;
67768;SDS011;54569;52.018;5.584;2023-08-20T10:42:26;3.88;;;1.10;;
67768;SDS011;54569;52.018;5.584;2023-08-20T10:45:05;2.97;;;1.00;;
67768;SDS011;54569;52.018;5.584;2023-08-20T10:47:44;3.30;;;0.80;;
67768;SDS011;54569;52.018;5.584;2023-08-20T10:50:11;1.80;;;0.70;;
67768;SDS011;54569;52.018;5.584;2023-08-20T10:52:40;2.42;;;0.88;;
67768;SDS011;54569;52.018;5.584;2023-08-20T10:55:07;1.95;;;0.80;;
67768;SDS011;54569;52.018;5.584;2023-08-20T10:57:35;2.08;;;0.70;;
67768;SDS011;54569;52.018;5.584;2023-08-20T11:00:03;2.00;;;0.98;;
67768;SDS011;54569;52.018;5.584;2023-08-20T11:02:40;3.47;;;0.70;;
67768;SDS011;54569;52.018;5.584;2023-08-20T11:05:17;2.55;;;0.80;;
67768;SDS011;54569;52.018;5.584;2023-08-20T11:07:46;2.80;;;0.98;;
67768;SDS011;54569;52.018;5.584;2023-08-20T11:10:16;2.55;;;1.00;;
67768;SDS011;54569;52.018;5.584;2023-08-20T11:12:43;2.22;;;1.00;;
67768;SDS011;54569;52.018;5.584;2023-08-20T11:15:10;5.13;;;1.08;;
67768;SDS011;54569;52.018;5.584;2023-08-20T11:17:45;4.05;;;0.90;;
67768;SDS011;54569;52.018;5.584;2023-08-20T11:20:13;1.52;;;0.73;;
67768;SDS011;54569;52.018;5.584;2023-08-20T11:22:40;2.97;;;1.05;;
67768;SDS011;54569;52.018;5.584;2023-08-20T11:25:10;1.73;;;1.00;;
67768;SDS011;54569;52.018;5.584;2023-08-20T11:27:40;1.83;;;0.90;;
67768;SDS011;54569;52.018;5.584;2023-08-20T11:30:06;3.08;;;1.00;;
67768;SDS011;54569;52.018;5.584;2023-08-20T11:32:34;3.55;;;0.80;;
67768;SDS011;54569;52.018;5.584;2023-08-20T11:35:00;1.27;;;0.90;;
67768;SDS011;54569;52.018;5.584;2023-08-20T11:37:26;2.47;;;0.88;;
67768;SDS011;54569;52.018;5.584;2023-08-20T11:39:52;3.08;;;1.08;;
67768;SDS011;54569;52.018;5.584;2023-08-20T11:42:18;3.20;;;0.88;;
67768;SDS011;54569;52.018;5.584;2023-08-20T11:44:45;2.35;;;0.80;;
67768;SDS011;54569;52.018;5.584;2023-08-20T11:47:15;1.77;;;0.80;;
67768;SDS011;54569;52.018;5.584;2023-08-20T11:49:42;1.77;;;0.80;;
67768;SDS011;54569;52.018;5.584;2023-08-20T11:52:08;1.30;;;0.80;;
67768;SDS011;54569;52.018;5.584;2023-08-20T11:54:34;1.27;;;0.70;;
67768;SDS011;54569;52.018;5.584;2023-08-20T11:57:04;1.85;;;0.90;;
67768;SDS011;54569;52.018;5.584;2023-08-20T11:59:31;2.53;;;1.00;;
67768;SDS011;54569;52.018;5.584;2023-08-20T12:01:58;2.67;;;1.02;;
67768;SDS011;54569;52.018;5.584;2023-08-20T12:04:29;2.17;;;1.02;;
67768;SDS011;54569;52.018;5.584;2023-08-20T12:07:03;3.05;;;0.80;;
67768;SDS011;54569;52.018;5.584;2023-08-20T12:09:39;2.25;;;0.70;;
67768;SDS011;54569;52.018;5.584;2023-08-20T12:12:08;2.33;;;0.90;;
67768;SDS011;54569;52.018;5.584;2023-08-20T12:14:34;4.88;;;1.20;;
67768;SDS011;54569;52.018;5.584;2023-08-20T12:17:00;2.35;;;0.80;;
67768;SDS011;54569;52.018;5.584;2023-08-20T12:19:28;3.08;;;1.00;;
67768;SDS011;54569;52.018;5.584;2023-08-20T12:21:54;1.75;;;0.80;;
67768;SDS011;54569;52.018;5.584;2023-08-20T12:24:19;2.50;;;0.80;;
67768;SDS011;54569;52.018;5.584;2023-08-20T12:26:45;2.28;;;0.88;;
67768;SDS011;54569;52.018;5.584;2023-08-20T12:29:11;0.95;;;0.68;;
67768;SDS011;54569;52.018;5.584;2023-08-20T12:31:37;2.85;;;0.93;;
67768;SDS011;54569;52.018;5.584;2023-08-20T12:34:03;4.57;;;1.30;;
67768;SDS011;54569;52.018;5.584;2023-08-20T12:36:29;2.75;;;0.95;;
67768;SDS011;54569;52.018;5.584;2023-08-20T12:38:55;2.33;;;0.80;;
67768;SDS011;54569;52.018;5.584;2023-08-20T12:41:21;3.30;;;1.10;;
67768;SDS011;54569;52.018;5.584;2023-08-20T12:43:47;2.85;;;0.90;;
67768;SDS011;54569;52.018;5.584;2023-08-20T12:46:12;3.13;;;0.90;;
67768;SDS011;54569;52.018;5.584;2023-08-20T12:48:39;2.60;;;1.02;;
67768;SDS011;54569;52.018;5.584;2023-08-20T12:51:04;2.25;;;0.80;;
67768;SDS011;54569;52.018;5.584;2023-08-20T12:53:31;1.63;;;0.90;;
67768;SDS011;54569;52.018;5.584;2023-08-20T12:55:57;2.35;;;1.20;;
67768;SDS011;54569;52.018;5.584;2023-08-20T12:58:23;1.48;;;0.70;;
67768;SDS011;54569;52.018;5.584;2023-08-20T13:00:50;1.67;;;0.68;;
67768;SDS011;54569;52.018;5.584;2023-08-20T13:03:16;2.60;;;0.82;;
67768;SDS011;54569;52.018;5.584;2023-08-20T13:05:43;3.78;;;0.95;;
67768;SDS011;54569;52.018;5.584;2023-08-20T13:08:09;2.60;;;1.17;;
67768;SDS011;54569;52.018;5.584;2023-08-20T13:10:38;2.80;;;1.10;;
67768;SDS011;54569;52.018;5.584;2023-08-20T13:13:12;2.17;;;0.93;;
67768;SDS011;54569;52.018;5.584;2023-08-20T13:15:39;3.78;;;0.80;;
67768;SDS011;54569;52.018;5.584;2023-08-20T13:18:05;1.95;;;0.90;;
67768;SDS011;54569;52.018;5.584;2023-08-20T13:20:32;2.95;;;0.90;;
67768;SDS011;54569;52.018;5.584;2023-08-20T13:22:58;2.75;;;1.08;;
67768;SDS011;54569;52.018;5.584;2023-08-20T13:25:24;4.13;;;1.13;;
67768;SDS011;54569;52.018;5.584;2023-08-20T13:27:49;2.90;;;1.00;;
67768;SDS011;54569;52.018;5.584;2023-08-20T13:30:15;2.10;;;0.63;;
67768;SDS011;54569;52.018;5.584;2023-08-20T13:32:41;2.83;;;1.02;;
67768;SDS011;54569;52.018;5.584;2023-08-20T13:35:07;2.55;;;1.05;;
67768;SDS011;54569;52.018;5.584;2023-08-20T13:37:33;5.35;;;1.30;;
67768;SDS011;54569;52.018;5.584;2023-08-20T13:40:00;1.52;;;0.85;;
67768;SDS011;54569;52.018;5.584;2023-08-20T13:42:26;2.35;;;0.90;;
67768;SDS011;54569;52.018;5.584;2023-08-20T13:44:52;4.00;;;1.10;;
67768;SDS011;54569;52.018;5.584;2023-08-20T13:47:18;3.42;;;0.90;;
67768;SDS011;54569;52.018;5.584;2023-08-20T13:49:44;3.33;;;1.05;;
67768;SDS011;54569;52.018;5.584;2023-08-20T13:52:09;3.97;;;1.42;;
67768;SDS011;54569;52.018;5.584;2023-08-20T13:54:35;3.22;;;1.05;;
67768;SDS011;54569;52.018;5.584;2023-08-20T13:57:04;3.58;;;1.00;;
67768;SDS011;54569;52.018;5.584;2023-08-20T13:59:30;1.52;;;0.80;;
67768;SDS011;54569;52.018;5.584;2023-08-20T14:01:57;3.78;;;1.15;;
67768;SDS011;54569;52.018;5.584;2023-08-20T14:04:23;3.35;;;1.10;;
67768;SDS011;54569;52.018;5.584;2023-08-20T14:06:49;2.50;;;1.15;;
67768;SDS011;54569;52.018;5.584;2023-08-20T14:09:15;2.70;;;0.90;;
67768;SDS011;54569;52.018;5.584;2023-08-20T14:11:43;3.60;;;1.10;;
67768;SDS011;54569;52.018;5.584;2023-08-20T14:14:08;3.60;;;1.13;;
67768;SDS011;54569;52.018;5.584;2023-08-20T14:16:34;2.88;;;1.20;;
67768;SDS011;54569;52.018;5.584;2023-08-20T14:19:00;2.88;;;1.10;;
67768;SDS011;54569;52.018;5.584;2023-08-20T14:21:26;3.17;;;1.05;;
67768;SDS011;54569;52.018;5.584;2023-08-20T14:23:51;3.65;;;1.35;;
67768;SDS011;54569;52.018;5.584;2023-08-20T14:26:17;2.05;;;1.10;;
67768;SDS011;54569;52.018;5.584;2023-08-20T14:28:43;3.22;;;1.08;;
67768;SDS011;54569;52.018;5.584;2023-08-20T14:31:09;2.60;;;0.98;;
67768;SDS011;54569;52.018;5.584;2023-08-20T14:33:35;3.58;;;1.20;;
67768;SDS011;54569;52.018;5.584;2023-08-20T14:36:01;5.25;;;1.10;;
67768;SDS011;54569;52.018;5.584;2023-08-20T14:38:30;3.58;;;1.02;;
67768;SDS011;54569;52.018;5.584;2023-08-20T14:40:59;3.38;;;1.20;;
67768;SDS011;54569;52.018;5.584;2023-08-20T14:43:26;3.22;;;1.05;;
67768;SDS011;54569;52.018;5.584;2023-08-20T14:45:52;2.92;;;1.20;;
67768;SDS011;54569;52.018;5.584;2023-08-20T14:48:19;4.68;;;2.10;;
67768;SDS011;54569;52.018;5.584;2023-08-20T14:50:45;3.58;;;1.50;;
67768;SDS011;54569;52.018;5.584;2023-08-20T14:53:11;2.10;;;0.88;;